sensor_id;sensor_type;location;lat;lon;timestamp;pressure;altitude;pressure_sealevel;temperature;humidity
45040;BME280;30778;53.574;7.770;2022-07-06T00:01:15;102314.16;;;12.99;49.04
45040;BME280;30778;53.574;7.770;2022-07-06T00:03:41;102309.50;;;13.09;49.06
45040;BME280;30778;53.574;7.770;2022-07-06T00:06:06;102302.97;;;12.93;48.56
45040;BME280;30778;53.574;7.770;2022-07-06T00:08:32;102317.94;;;12.89;48.85
45040;BME280;30778;53.574;7.770;2022-07-06T00:10:58;102308.22;;;12.93;49.14
45040;BME280;30778;53.574;7.770;2022-07-06T00:13:23;102305.81;;;12.85;49.47
45040;BME280;30778;53.574;7.770;2022-07-06T00:15:49;102303.88;;;12.92;49.42
45040;BME280;30778;53.574;7.770;2022-07-06T00:18:14;102300.56;;;12.85;49.28
45040;BME280;30778;53.574;7.770;2022-07-06T00:20:40;102304.25;;;12.78;49.41
45040;BME280;30778;53.574;7.770;2022-07-06T00:23:05;102299.63;;;12.87;49.68
45040;BME280;30778;53.574;7.770;2022-07-06T00:25:31;102302.06;;;12.94;49.22
45040;BME280;30778;53.574;7.770;2022-07-06T00:27:56;102309.06;;;12.93;49.17
45040;BME280;30778;53.574;7.770;2022-07-06T00:30:21;102302.03;;;12.95;49.10
45040;BME280;30778;53.574;7.770;2022-07-06T00:32:47;102303.22;;;12.83;48.68
45040;BME280;30778;53.574;7.770;2022-07-06T00:35:12;102305.06;;;12.80;49.73
45040;BME280;30778;53.574;7.770;2022-07-06T00:37:38;102311.81;;;12.88;49.53
45040;BME280;30778;53.574;7.770;2022-07-06T00:40:04;102311.09;;;12.83;49.05
45040;BME280;30778;53.574;7.770;2022-07-06T00:42:30;102306.66;;;12.85;49.14
45040;BME280;30778;53.574;7.770;2022-07-06T00:44:55;102311.97;;;12.82;48.63
45040;BME280;30778;53.574;7.770;2022-07-06T00:47:21;102307.53;;;12.86;48.86
45040;BME280;30778;53.574;7.770;2022-07-06T00:49:46;102302.75;;;12.67;48.70
45040;BME280;30778;53.574;7.770;2022-07-06T00:52:30;102302.53;;;12.77;48.60
45040;BME280;30778;53.574;7.770;2022-07-06T00:54:56;102304.53;;;12.65;48.93
45040;BME280;30778;53.574;7.770;2022-07-06T00:57:23;102313.88;;;12.77;48.58
45040;BME280;30778;53.574;7.770;2022-07-06T00:59:48;102310.53;;;12.72;48.68
45040;BME280;30778;53.574;7.770;2022-07-06T01:02:14;102301.88;;;12.67;48.06
45040;BME280;30778;53.574;7.770;2022-07-06T01:04:40;102309.78;;;12.65;48.15
45040;BME280;30778;53.574;7.770;2022-07-06T01:07:05;102312.22;;;12.39;48.77
45040;BME280;30778;53.574;7.770;2022-07-06T01:09:31;102314.94;;;12.34;49.19
45040;BME280;30778;53.574;7.770;2022-07-06T01:11:56;102313.03;;;12.41;48.79
45040;BME280;30778;53.574;7.770;2022-07-06T01:14:22;102310.31;;;12.44;48.43
45040;BME280;30778;53.574;7.770;2022-07-06T01:16:48;102309.22;;;12.54;48.22
45040;BME280;30778;53.574;7.770;2022-07-06T01:19:14;102298.75;;;12.53;47.97
45040;BME280;30778;53.574;7.770;2022-07-06T01:21:40;102299.47;;;12.58;47.90
45040;BME280;30778;53.574;7.770;2022-07-06T01:24:06;102297.94;;;12.49;48.04
45040;BME280;30778;53.574;7.770;2022-07-06T01:26:32;102294.34;;;12.53;48.16
45040;BME280;30778;53.574;7.770;2022-07-06T01:28:57;102297.78;;;12.55;47.99
45040;BME280;30778;53.574;7.770;2022-07-06T01:31:25;102309.47;;;12.43;47.86
45040;BME280;30778;53.574;7.770;2022-07-06T01:33:52;102306.63;;;12.51;47.63
45040;BME280;30778;53.574;7.770;2022-07-06T01:36:18;102314.28;;;12.24;48.38
45040;BME280;30778;53.574;7.770;2022-07-06T01:38:48;102311.84;;;11.79;49.18
45040;BME280;30778;53.574;7.770;2022-07-06T01:41:14;102310.84;;;11.85;49.33
45040;BME280;30778;53.574;7.770;2022-07-06T01:43:39;102307.91;;;11.60;49.35
45040;BME280;30778;53.574;7.770;2022-07-06T01:46:05;102299.84;;;11.69;48.54
45040;BME280;30778;53.574;7.770;2022-07-06T01:48:31;102288.44;;;11.70;47.93
45040;BME280;30778;53.574;7.770;2022-07-06T01:50:57;102282.19;;;11.79;47.17
45040;BME280;30778;53.574;7.770;2022-07-06T01:53:23;102275.56;;;12.00;46.63
45040;BME280;30778;53.574;7.770;2022-07-06T01:55:49;102274.22;;;12.19;46.26
45040;BME280;30778;53.574;7.770;2022-07-06T01:58:15;102276.94;;;12.16;46.39
45040;BME280;30778;53.574;7.770;2022-07-06T02:00:41;102277.16;;;12.07;46.23
45040;BME280;30778;53.574;7.770;2022-07-06T02:03:07;102275.16;;;12.18;46.19
45040;BME280;30778;53.574;7.770;2022-07-06T02:05:34;102288.16;;;12.21;46.43
45040;BME280;30778;53.574;7.770;2022-07-06T02:08:00;102277.56;;;12.26;46.39
45040;BME280;30778;53.574;7.770;2022-07-06T02:10:25;102280.16;;;12.27;46.40
45040;BME280;30778;53.574;7.770;2022-07-06T02:12:51;102280.19;;;12.26;46.34
45040;BME280;30778;53.574;7.770;2022-07-06T02:15:16;102278.66;;;12.17;46.94
45040;BME280;30778;53.574;7.770;2022-07-06T02:17:42;102277.09;;;12.10;46.66
45040;BME280;30778;53.574;7.770;2022-07-06T02:20:08;102276.72;;;12.25;46.60
45040;BME280;30778;53.574;7.770;2022-07-06T02:22:34;102277.53;;;12.27;46.41
45040;BME280;30778;53.574;7.770;2022-07-06T02:25:00;102275.78;;;12.26;46.46
45040;BME280;30778;53.574;7.770;2022-07-06T02:27:26;102274.09;;;12.25;46.22
45040;BME280;30778;53.574;7.770;2022-07-06T02:29:52;102278.47;;;12.25;46.18
45040;BME280;30778;53.574;7.770;2022-07-06T02:32:17;102275.91;;;12.22;45.93
45040;BME280;30778;53.574;7.770;2022-07-06T02:34:43;102289.69;;;12.30;46.53
45040;BME280;30778;53.574;7.770;2022-07-06T02:37:09;102285.84;;;12.09;46.52
45040;BME280;30778;53.574;7.770;2022-07-06T02:39:35;102286.88;;;12.02;46.68
45040;BME280;30778;53.574;7.770;2022-07-06T02:42:02;102286.69;;;12.11;46.75
45040;BME280;30778;53.574;7.770;2022-07-06T02:44:28;102291.00;;;12.12;47.08
45040;BME280;30778;53.574;7.770;2022-07-06T02:46:53;102289.50;;;12.02;46.65
45040;BME280;30778;53.574;7.770;2022-07-06T02:49:20;102287.59;;;12.08;46.67
45040;BME280;30778;53.574;7.770;2022-07-06T02:51:46;102288.66;;;12.00;47.23
45040;BME280;30778;53.574;7.770;2022-07-06T02:54:11;102286.69;;;12.11;46.57
45040;BME280;30778;53.574;7.770;2022-07-06T02:56:37;102288.53;;;12.06;46.79
45040;BME280;30778;53.574;7.770;2022-07-06T02:59:03;102283.06;;;12.15;46.79
45040;BME280;30778;53.574;7.770;2022-07-06T03:01:29;102281.50;;;12.08;46.75
45040;BME280;30778;53.574;7.770;2022-07-06T03:03:54;102291.41;;;11.95;47.22
45040;BME280;30778;53.574;7.770;2022-07-06T03:06:20;102287.59;;;12.08;47.11
45040;BME280;30778;53.574;7.770;2022-07-06T03:08:45;102292.13;;;12.02;46.61
45040;BME280;30778;53.574;7.770;2022-07-06T03:11:11;102300.03;;;12.00;47.23
45040;BME280;30778;53.574;7.770;2022-07-06T03:13:37;102292.94;;;12.04;47.10
45040;BME280;30778;53.574;7.770;2022-07-06T03:16:03;102299.16;;;12.00;46.98
45040;BME280;30778;53.574;7.770;2022-07-06T03:18:30;102292.00;;;12.06;46.97
45040;BME280;30778;53.574;7.770;2022-07-06T03:20:55;102296.38;;;12.06;47.34
45040;BME280;30778;53.574;7.770;2022-07-06T03:23:21;102301.69;;;12.04;47.04
45040;BME280;30778;53.574;7.770;2022-07-06T03:25:47;102294.50;;;11.72;48.03
45040;BME280;30778;53.574;7.770;2022-07-06T03:28:13;102283.66;;;11.91;47.91
45040;BME280;30778;53.574;7.770;2022-07-06T03:30:38;102298.41;;;11.95;48.42
45040;BME280;30778;53.574;7.770;2022-07-06T03:33:04;102295.03;;;11.90;49.36
45040;BME280;30778;53.574;7.770;2022-07-06T03:35:29;102294.06;;;11.94;49.53
45040;BME280;30778;53.574;7.770;2022-07-06T03:37:56;102293.13;;;11.96;49.64
45040;BME280;30778;53.574;7.770;2022-07-06T03:40:23;102297.66;;;11.90;49.64
45040;BME280;30778;53.574;7.770;2022-07-06T03:42:50;102300.09;;;11.97;49.84
45040;BME280;30778;53.574;7.770;2022-07-06T03:45:16;102300.66;;;12.10;49.84
45040;BME280;30778;53.574;7.770;2022-07-06T03:47:41;102295.50;;;12.07;50.02
45040;BME280;30778;53.574;7.770;2022-07-06T03:50:08;102301.53;;;12.11;49.99
45040;BME280;30778;53.574;7.770;2022-07-06T03:52:35;102302.25;;;12.17;50.49
45040;BME280;30778;53.574;7.770;2022-07-06T03:55:00;102296.94;;;12.20;49.79
45040;BME280;30778;53.574;7.770;2022-07-06T03:57:28;102293.81;;;12.04;50.24
45040;BME280;30778;53.574;7.770;2022-07-06T03:59:57;102287.53;;;12.12;50.23
45040;BME280;30778;53.574;7.770;2022-07-06T04:02:23;102290.94;;;12.15;49.83
45040;BME280;30778;53.574;7.770;2022-07-06T04:04:51;102286.56;;;12.16;50.21
45040;BME280;30778;53.574;7.770;2022-07-06T04:07:16;102284.72;;;12.19;50.07
45040;BME280;30778;53.574;7.770;2022-07-06T04:09:42;102294.81;;;12.36;49.85
45040;BME280;30778;53.574;7.770;2022-07-06T04:12:08;102290.44;;;12.35;48.93
45040;BME280;30778;53.574;7.770;2022-07-06T04:14:34;102288.97;;;12.25;49.61
45040;BME280;30778;53.574;7.770;2022-07-06T04:17:01;102292.06;;;12.05;50.08
45040;BME280;30778;53.574;7.770;2022-07-06T04:19:47;102291.00;;;12.12;49.88
45040;BME280;30778;53.574;7.770;2022-07-06T04:22:14;102291.38;;;12.33;49.33
45040;BME280;30778;53.574;7.770;2022-07-06T04:24:39;102293.03;;;12.37;49.41
45040;BME280;30778;53.574;7.770;2022-07-06T04:27:05;102290.03;;;12.16;49.64
45040;BME280;30778;53.574;7.770;2022-07-06T04:29:31;102291.94;;;12.11;50.10
45040;BME280;30778;53.574;7.770;2022-07-06T04:31:56;102292.66;;;12.16;50.63
45040;BME280;30778;53.574;7.770;2022-07-06T04:34:22;102289.13;;;12.17;50.57
45040;BME280;30778;53.574;7.770;2022-07-06T04:36:48;102289.13;;;12.17;50.15
45040;BME280;30778;53.574;7.770;2022-07-06T04:39:14;102294.84;;;12.33;50.06
45040;BME280;30778;53.574;7.770;2022-07-06T04:41:40;102295.31;;;12.49;50.06
45040;BME280;30778;53.574;7.770;2022-07-06T04:44:06;102296.16;;;12.51;49.66
45040;BME280;30778;53.574;7.770;2022-07-06T04:46:31;102298.19;;;12.40;49.99
45040;BME280;30778;53.574;7.770;2022-07-06T04:48:57;102301.00;;;12.66;49.82
45040;BME280;30778;53.574;7.770;2022-07-06T04:51:27;102297.53;;;12.66;49.20
45040;BME280;30778;53.574;7.770;2022-07-06T04:53:53;102299.00;;;12.78;49.25
45040;BME280;30778;53.574;7.770;2022-07-06T04:56:20;102294.91;;;12.66;49.08
45040;BME280;30778;53.574;7.770;2022-07-06T04:58:47;102298.13;;;12.77;48.85
45040;BME280;30778;53.574;7.770;2022-07-06T05:01:15;102299.69;;;12.84;48.35
45040;BME280;30778;53.574;7.770;2022-07-06T05:03:41;102296.94;;;12.89;48.12
45040;BME280;30778;53.574;7.770;2022-07-06T05:06:09;102298.53;;;12.95;48.23
45040;BME280;30778;53.574;7.770;2022-07-06T05:08:35;102301.94;;;12.64;47.72
45040;BME280;30778;53.574;7.770;2022-07-06T05:11:00;102300.47;;;12.88;47.94
45040;BME280;30778;53.574;7.770;2022-07-06T05:13:26;102298.00;;;13.15;47.78
45040;BME280;30778;53.574;7.770;2022-07-06T05:15:52;102307.91;;;13.36;47.25
45040;BME280;30778;53.574;7.770;2022-07-06T05:18:19;102312.78;;;13.48;46.68
45040;BME280;30778;53.574;7.770;2022-07-06T05:20:45;102314.25;;;13.27;47.09
45040;BME280;30778;53.574;7.770;2022-07-06T05:23:13;102314.59;;;13.46;46.31
45040;BME280;30778;53.574;7.770;2022-07-06T05:25:39;102311.69;;;13.56;46.32
45040;BME280;30778;53.574;7.770;2022-07-06T05:28:04;102318.72;;;13.55;46.34
45040;BME280;30778;53.574;7.770;2022-07-06T05:30:30;102311.56;;;13.60;46.51
45040;BME280;30778;53.574;7.770;2022-07-06T05:32:56;102311.22;;;13.41;46.66
45040;BME280;30778;53.574;7.770;2022-07-06T05:35:22;102310.84;;;13.53;46.41
45040;BME280;30778;53.574;7.770;2022-07-06T05:37:49;102314.41;;;13.82;45.84
45040;BME280;30778;53.574;7.770;2022-07-06T05:40:14;102316.16;;;13.83;45.41
45040;BME280;30778;53.574;7.770;2022-07-06T05:42:40;102314.38;;;13.84;45.33
45040;BME280;30778;53.574;7.770;2022-07-06T05:45:07;102324.28;;;13.74;45.43
45040;BME280;30778;53.574;7.770;2022-07-06T05:47:32;102326.31;;;13.66;45.47
45040;BME280;30778;53.574;7.770;2022-07-06T05:50:17;102333.19;;;13.39;46.54
45040;BME280;30778;53.574;7.770;2022-07-06T05:53:00;102338.44;;;13.39;46.54
45040;BME280;30778;53.574;7.770;2022-07-06T05:55:28;102335.31;;;13.56;45.41
45040;BME280;30778;53.574;7.770;2022-07-06T05:57:55;102329.97;;;13.90;43.74
45040;BME280;30778;53.574;7.770;2022-07-06T06:00:24;102327.38;;;13.88;43.09
45040;BME280;30778;53.574;7.770;2022-07-06T06:02:53;102329.81;;;13.65;42.90
45040;BME280;30778;53.574;7.770;2022-07-06T06:05:20;102320.66;;;13.48;42.13
45040;BME280;30778;53.574;7.770;2022-07-06T06:07:48;102323.75;;;13.92;41.20
45040;BME280;30778;53.574;7.770;2022-07-06T06:10:18;102321.13;;;13.92;40.77
45040;BME280;30778;53.574;7.770;2022-07-06T06:12:47;102318.97;;;13.77;40.07
45040;BME280;30778;53.574;7.770;2022-07-06T06:15:13;102320.38;;;13.87;40.12
45040;BME280;30778;53.574;7.770;2022-07-06T06:17:40;102318.81;;;13.82;40.70
45040;BME280;30778;53.574;7.770;2022-07-06T06:20:07;102322.13;;;13.88;40.35
45040;BME280;30778;53.574;7.770;2022-07-06T06:22:55;102328.81;;;13.99;39.57
45040;BME280;30778;53.574;7.770;2022-07-06T06:25:28;102329.63;;;14.27;39.73
45040;BME280;30778;53.574;7.770;2022-07-06T06:27:54;102335.03;;;14.51;39.43
45040;BME280;30778;53.574;7.770;2022-07-06T06:30:20;102331.94;;;14.36;40.40
45040;BME280;30778;53.574;7.770;2022-07-06T06:32:45;102333.50;;;14.70;39.54
45040;BME280;30778;53.574;7.770;2022-07-06T06:35:11;102334.47;;;14.93;39.73
45040;BME280;30778;53.574;7.770;2022-07-06T06:37:37;102334.81;;;14.84;39.17
45040;BME280;30778;53.574;7.770;2022-07-06T06:40:04;102345.66;;;14.48;39.89
45040;BME280;30778;53.574;7.770;2022-07-06T06:42:30;102328.97;;;14.74;39.70
45040;BME280;30778;53.574;7.770;2022-07-06T06:44:57;102333.25;;;15.28;39.06
45040;BME280;30778;53.574;7.770;2022-07-06T06:47:23;102337.63;;;15.51;39.15
45040;BME280;30778;53.574;7.770;2022-07-06T06:49:48;102334.66;;;15.61;39.40
45040;BME280;30778;53.574;7.770;2022-07-06T06:52:14;102339.78;;;15.87;37.53
45040;BME280;30778;53.574;7.770;2022-07-06T06:54:39;102337.78;;;15.70;38.43
45040;BME280;30778;53.574;7.770;2022-07-06T06:57:05;102347.06;;;15.80;37.49
45040;BME280;30778;53.574;7.770;2022-07-06T06:59:30;102342.28;;;15.90;37.95
45040;BME280;30778;53.574;7.770;2022-07-06T07:01:56;102351.09;;;16.13;38.13
45040;BME280;30778;53.574;7.770;2022-07-06T07:04:22;102340.38;;;15.72;37.95
45040;BME280;30778;53.574;7.770;2022-07-06T07:06:48;102350.91;;;15.72;38.86
45040;BME280;30778;53.574;7.770;2022-07-06T07:09:14;102342.88;;;16.20;38.04
45040;BME280;30778;53.574;7.770;2022-07-06T07:11:39;102351.75;;;15.72;38.08
45040;BME280;30778;53.574;7.770;2022-07-06T07:14:05;102352.25;;;16.28;37.97
45040;BME280;30778;53.574;7.770;2022-07-06T07:16:30;102357.31;;;16.54;37.12
45040;BME280;30778;53.574;7.770;2022-07-06T07:18:56;102348.25;;;16.82;36.50
45040;BME280;30778;53.574;7.770;2022-07-06T07:21:22;102350.75;;;16.85;35.68
45040;BME280;30778;53.574;7.770;2022-07-06T07:23:47;102353.72;;;15.91;37.77
45040;BME280;30778;53.574;7.770;2022-07-06T07:26:14;102363.84;;;16.02;38.07
45040;BME280;30778;53.574;7.770;2022-07-06T07:28:39;102364.25;;;15.91;38.24
45040;BME280;30778;53.574;7.770;2022-07-06T07:31:05;102368.22;;;15.32;39.21
45040;BME280;30778;53.574;7.770;2022-07-06T07:33:30;102370.56;;;15.87;37.98
45040;BME280;30778;53.574;7.770;2022-07-06T07:35:56;102374.34;;;15.79;37.98
45040;BME280;30778;53.574;7.770;2022-07-06T07:38:21;102372.19;;;16.13;37.47
45040;BME280;30778;53.574;7.770;2022-07-06T07:40:47;102360.44;;;15.98;37.71
45040;BME280;30778;53.574;7.770;2022-07-06T07:43:13;102360.97;;;16.08;37.85
45040;BME280;30778;53.574;7.770;2022-07-06T07:45:39;102353.59;;;16.80;37.05
45040;BME280;30778;53.574;7.770;2022-07-06T07:48:05;102351.94;;;16.35;36.91
45040;BME280;30778;53.574;7.770;2022-07-06T07:50:31;102357.63;;;16.04;36.55
45040;BME280;30778;53.574;7.770;2022-07-06T07:52:56;102362.13;;;15.77;37.54
45040;BME280;30778;53.574;7.770;2022-07-06T07:55:22;102365.59;;;15.55;38.71
45040;BME280;30778;53.574;7.770;2022-07-06T07:57:47;102380.22;;;14.35;43.46
45040;BME280;30778;53.574;7.770;2022-07-06T08:00:13;102384.34;;;14.71;42.90
45040;BME280;30778;53.574;7.770;2022-07-06T08:02:39;102367.75;;;14.69;43.50
45040;BME280;30778;53.574;7.770;2022-07-06T08:05:05;102374.31;;;14.57;44.36
45040;BME280;30778;53.574;7.770;2022-07-06T08:07:31;102376.34;;;14.99;44.49
45040;BME280;30778;53.574;7.770;2022-07-06T08:09:56;102370.47;;;15.43;43.43
45040;BME280;30778;53.574;7.770;2022-07-06T08:12:22;102375.44;;;15.74;43.10
45040;BME280;30778;53.574;7.770;2022-07-06T08:14:47;102369.97;;;15.55;41.64
45040;BME280;30778;53.574;7.770;2022-07-06T08:17:13;102366.59;;;16.42;40.13
45040;BME280;30778;53.574;7.770;2022-07-06T08:19:38;102367.72;;;17.79;37.56
45040;BME280;30778;53.574;7.770;2022-07-06T08:22:04;102370.47;;;17.76;35.69
45040;BME280;30778;53.574;7.770;2022-07-06T08:24:35;102375.38;;;18.02;34.66
45040;BME280;30778;53.574;7.770;2022-07-06T08:27:01;102374.50;;;19.09;33.56
45040;BME280;30778;53.574;7.770;2022-07-06T08:29:29;102367.16;;;19.48;31.27
45040;BME280;30778;53.574;7.770;2022-07-06T08:31:55;102369.25;;;20.06;31.08
45040;BME280;30778;53.574;7.770;2022-07-06T08:34:21;102362.56;;;19.67;32.29
45040;BME280;30778;53.574;7.770;2022-07-06T08:36:46;102370.44;;;20.01;31.51
45040;BME280;30778;53.574;7.770;2022-07-06T08:39:12;102366.81;;;20.94;28.13
45040;BME280;30778;53.574;7.770;2022-07-06T08:41:41;102372.22;;;22.86;25.29
45040;BME280;30778;53.574;7.770;2022-07-06T08:44:08;102367.69;;;24.59;24.54
45040;BME280;30778;53.574;7.770;2022-07-06T08:46:35;102374.75;;;24.12;23.11
45040;BME280;30778;53.574;7.770;2022-07-06T08:49:03;102362.41;;;24.22;23.49
45040;BME280;30778;53.574;7.770;2022-07-06T08:51:31;102359.66;;;22.08;26.63
45040;BME280;30778;53.574;7.770;2022-07-06T08:53:56;102360.56;;;22.21;26.63
45040;BME280;30778;53.574;7.770;2022-07-06T08:56:22;102359.56;;;22.49;25.33
45040;BME280;30778;53.574;7.770;2022-07-06T08:58:48;102363.91;;;20.38;28.60
45040;BME280;30778;53.574;7.770;2022-07-06T09:01:15;102369.09;;;19.44;29.83
45040;BME280;30778;53.574;7.770;2022-07-06T09:03:43;102362.84;;;19.45;30.17
45040;BME280;30778;53.574;7.770;2022-07-06T09:06:10;102365.94;;;19.04;30.55
45040;BME280;30778;53.574;7.770;2022-07-06T09:08:39;102374.09;;;18.82;32.43
45040;BME280;30778;53.574;7.770;2022-07-06T09:11:05;102368.19;;;17.68;33.33
45040;BME280;30778;53.574;7.770;2022-07-06T09:13:30;102383.81;;;16.73;35.54
45040;BME280;30778;53.574;7.770;2022-07-06T09:16:11;102385.97;;;15.97;36.32
45040;BME280;30778;53.574;7.770;2022-07-06T09:18:38;102390.94;;;15.34;37.45
45040;BME280;30778;53.574;7.770;2022-07-06T09:21:07;102387.28;;;15.86;37.14
45040;BME280;30778;53.574;7.770;2022-07-06T09:23:33;102398.00;;;15.81;37.38
45040;BME280;30778;53.574;7.770;2022-07-06T09:26:02;102387.13;;;16.56;37.59
45040;BME280;30778;53.574;7.770;2022-07-06T09:28:42;102389.88;;;18.85;34.74
45040;BME280;30778;53.574;7.770;2022-07-06T09:31:08;102376.56;;;20.63;30.22
45040;BME280;30778;53.574;7.770;2022-07-06T09:33:34;102377.16;;;21.70;27.07
45040;BME280;30778;53.574;7.770;2022-07-06T09:36:00;102366.53;;;23.78;25.20
45040;BME280;30778;53.574;7.770;2022-07-06T09:38:27;102371.03;;;22.77;25.53
45040;BME280;30778;53.574;7.770;2022-07-06T09:40:54;102370.66;;;22.56;26.68
45040;BME280;30778;53.574;7.770;2022-07-06T09:43:21;102374.38;;;24.41;24.88
45040;BME280;30778;53.574;7.770;2022-07-06T09:48:18;102368.25;;;21.43;29.29
45040;BME280;30778;53.574;7.770;2022-07-06T09:50:48;102356.66;;;21.58;28.53
45040;BME280;30778;53.574;7.770;2022-07-06T09:53:14;102363.75;;;20.86;28.79
45040;BME280;30778;53.574;7.770;2022-07-06T09:55:47;102358.69;;;21.82;28.86
45040;BME280;30778;53.574;7.770;2022-07-06T09:58:14;102354.09;;;22.25;27.71
45040;BME280;30778;53.574;7.770;2022-07-06T10:00:41;102359.69;;;21.23;28.02
45040;BME280;30778;53.574;7.770;2022-07-06T10:03:07;102363.34;;;19.85;31.17
45040;BME280;30778;53.574;7.770;2022-07-06T10:05:37;102368.09;;;19.14;32.09
45040;BME280;30778;53.574;7.770;2022-07-06T10:08:03;102368.84;;;17.92;33.87
45040;BME280;30778;53.574;7.770;2022-07-06T10:10:32;102372.50;;;17.90;34.47
45040;BME280;30778;53.574;7.770;2022-07-06T10:12:58;102368.63;;;17.59;34.51
45040;BME280;30778;53.574;7.770;2022-07-06T10:15:29;102368.81;;;18.30;33.71
45040;BME280;30778;53.574;7.770;2022-07-06T10:17:58;102360.72;;;19.03;32.18
45040;BME280;30778;53.574;7.770;2022-07-06T10:20:24;102362.28;;;18.89;31.88
45040;BME280;30778;53.574;7.770;2022-07-06T10:22:54;102360.31;;;18.23;33.44
45040;BME280;30778;53.574;7.770;2022-07-06T10:25:20;102357.56;;;18.25;33.00
45040;BME280;30778;53.574;7.770;2022-07-06T10:27:47;102354.84;;;17.52;34.17
45040;BME280;30778;53.574;7.770;2022-07-06T10:30:14;102363.38;;;17.18;34.56
45040;BME280;30778;53.574;7.770;2022-07-06T10:32:42;102351.84;;;18.69;33.71
45040;BME280;30778;53.574;7.770;2022-07-06T10:35:09;102353.16;;;19.78;31.47
45040;BME280;30778;53.574;7.770;2022-07-06T10:37:34;102358.03;;;20.47;29.26
45040;BME280;30778;53.574;7.770;2022-07-06T10:40:01;102356.28;;;21.07;27.77
45040;BME280;30778;53.574;7.770;2022-07-06T10:42:47;102345.19;;;21.00;28.20
45040;BME280;30778;53.574;7.770;2022-07-06T10:53:15;102340.25;;;21.51;27.08
45040;BME280;30778;53.574;7.770;2022-07-06T10:55:47;102341.47;;;21.17;27.63
45040;BME280;30778;53.574;7.770;2022-07-06T10:58:14;102344.09;;;19.82;28.96
45040;BME280;30778;53.574;7.770;2022-07-06T11:00:54;102340.34;;;20.32;28.06
45040;BME280;30778;53.574;7.770;2022-07-06T11:06:12;102336.31;;;20.55;27.25
45040;BME280;30778;53.574;7.770;2022-07-06T11:08:50;102334.25;;;21.48;26.71
45040;BME280;30778;53.574;7.770;2022-07-06T11:14:17;102335.63;;;22.09;25.20
45040;BME280;30778;53.574;7.770;2022-07-06T11:19:15;102332.44;;;21.48;25.60
45040;BME280;30778;53.574;7.770;2022-07-06T11:24:16;102324.28;;;20.94;26.59
45040;BME280;30778;53.574;7.770;2022-07-06T11:26:43;102321.31;;;21.56;24.83
45040;BME280;30778;53.574;7.770;2022-07-06T11:29:10;102328.47;;;20.07;27.12
45040;BME280;30778;53.574;7.770;2022-07-06T11:31:39;102327.03;;;21.21;25.67
45040;BME280;30778;53.574;7.770;2022-07-06T11:34:06;102322.25;;;21.55;24.76
45040;BME280;30778;53.574;7.770;2022-07-06T11:36:33;102328.09;;;22.29;24.60
45040;BME280;30778;53.574;7.770;2022-07-06T11:38:59;102329.19;;;23.16;22.72
45040;BME280;30778;53.574;7.770;2022-07-06T11:41:25;102330.69;;;21.62;24.66
45040;BME280;30778;53.574;7.770;2022-07-06T11:43:50;102331.41;;;21.08;25.06
45040;BME280;30778;53.574;7.770;2022-07-06T11:46:30;102324.97;;;20.98;26.68
45040;BME280;30778;53.574;7.770;2022-07-06T11:51:27;102325.94;;;20.22;26.86
45040;BME280;30778;53.574;7.770;2022-07-06T11:53:56;102324.84;;;20.40;27.07
45040;BME280;30778;53.574;7.770;2022-07-06T11:56:23;102320.81;;;19.55;27.53
45040;BME280;30778;53.574;7.770;2022-07-06T11:58:52;102315.75;;;19.82;28.63
45040;BME280;30778;53.574;7.770;2022-07-06T12:01:18;102313.72;;;20.78;28.41
45040;BME280;30778;53.574;7.770;2022-07-06T12:03:45;102313.38;;;19.78;27.72
45040;BME280;30778;53.574;7.770;2022-07-06T12:06:19;102314.56;;;19.56;28.06
45040;BME280;30778;53.574;7.770;2022-07-06T12:08:54;102300.09;;;19.46;28.77
45040;BME280;30778;53.574;7.770;2022-07-06T12:13:51;102300.03;;;20.70;27.71
45040;BME280;30778;53.574;7.770;2022-07-06T12:16:18;102302.19;;;20.03;28.21
45040;BME280;30778;53.574;7.770;2022-07-06T12:18:45;102292.97;;;20.85;28.52
45040;BME280;30778;53.574;7.770;2022-07-06T12:21:13;102288.38;;;22.38;26.06
45040;BME280;30778;53.574;7.770;2022-07-06T12:23:44;102281.78;;;22.04;26.27
45040;BME280;30778;53.574;7.770;2022-07-06T12:26:10;102286.28;;;21.21;26.80
45040;BME280;30778;53.574;7.770;2022-07-06T12:28:36;102285.63;;;20.74;27.99
45040;BME280;30778;53.574;7.770;2022-07-06T12:31:02;102284.53;;;20.48;28.50
45040;BME280;30778;53.574;7.770;2022-07-06T12:33:29;102274.22;;;21.71;27.14
45040;BME280;30778;53.574;7.770;2022-07-06T12:35:54;102280.72;;;22.07;26.53
45040;BME280;30778;53.574;7.770;2022-07-06T12:38:24;102264.16;;;22.29;25.14
45040;BME280;30778;53.574;7.770;2022-07-06T12:40:50;102268.53;;;22.43;26.34
45040;BME280;30778;53.574;7.770;2022-07-06T12:43:48;102273.47;;;21.69;26.59
45040;BME280;30778;53.574;7.770;2022-07-06T12:46:27;102289.31;;;21.85;26.78
45040;BME280;30778;53.574;7.770;2022-07-06T12:48:55;102273.09;;;21.19;27.39
45040;BME280;30778;53.574;7.770;2022-07-06T12:51:21;102272.31;;;21.31;27.21
45040;BME280;30778;53.574;7.770;2022-07-06T12:53:47;102267.22;;;21.00;28.45
45040;BME280;30778;53.574;7.770;2022-07-06T12:56:13;102273.75;;;21.23;28.01
45040;BME280;30778;53.574;7.770;2022-07-06T12:58:39;102260.03;;;21.43;26.83
45040;BME280;30778;53.574;7.770;2022-07-06T13:01:05;102256.94;;;21.91;27.17
45040;BME280;30778;53.574;7.770;2022-07-06T13:03:41;102264.88;;;20.36;28.73
45040;BME280;30778;53.574;7.770;2022-07-06T13:06:07;102272.28;;;19.37;29.94
45040;BME280;30778;53.574;7.770;2022-07-06T13:08:32;102269.97;;;20.25;29.40
45040;BME280;30778;53.574;7.770;2022-07-06T13:10:58;102274.25;;;19.97;29.58
45040;BME280;30778;53.574;7.770;2022-07-06T13:13:23;102276.75;;;20.15;29.76
45040;BME280;30778;53.574;7.770;2022-07-06T13:15:49;102257.31;;;20.44;29.88